Time;durP1;ratioP1;P1;durP2;ratioP2;P2;SDS_P1;SDS_P2;PMS_P1;PMS_P2;Temp;Humidity;BMP_temperature;BMP_pressure;BME280_temperature;BME280_humidity;BME280_pressure;Samples;Min_cycle;Max_cycle;Signal;HPM_P1;HPM_P2
2023/09/28 00:01:22;;;;;;;12.77;6.53;;;23.30;60.30;;;;;;6244231;23;20012;-74
2023/09/28 00:03:48;;;;;;;11.13;6.47;;;23.20;60.30;;;;;;6244207;23;20004;-74
2023/09/28 00:06:14;;;;;;;20.40;6.82;;;23.20;60.40;;;;;;6244060;23;20000;-75
2023/09/28 00:08:40;;;;;;;17.85;6.53;;;23.20;60.50;;;;;;6227594;23;20086;-75
2023/09/28 00:11:06;;;;;;;11.18;6.90;;;23.20;60.80;;;;;;6187083;23;20016;-75
2023/09/28 00:13:31;;;;;;;12.57;6.80;;;23.20;60.80;;;;;;6214409;23;19997;-75
2023/09/28 00:15:58;;;;;;;13.88;5.93;;;23.20;60.60;;;;;;6187298;23;20091;-75
2023/09/28 00:18:25;;;;;;;13.95;6.40;;;23.20;60.90;;;;;;6213700;23;20393;-74
2023/09/28 00:20:51;;;;;;;12.13;6.57;;;23.20;61.00;;;;;;6214109;23;20330;-75
2023/09/28 00:23:17;;;;;;;13.63;6.47;;;23.20;60.90;;;;;;6186979;23;20009;-74
2023/09/28 00:25:43;;;;;;;16.48;6.50;;;23.10;61.10;;;;;;6213550;23;20490;-76
2023/09/28 00:28:09;;;;;;;11.88;7.05;;;23.10;61.10;;;;;;6215507;23;20004;-74
2023/09/28 00:30:35;;;;;;;14.25;6.45;;;23.10;61.10;;;;;;6215685;23;20382;-74
2023/09/28 00:33:01;;;;;;;13.45;6.45;;;23.10;61.40;;;;;;6215389;23;20435;-75
2023/09/28 00:35:27;;;;;;;16.80;6.93;;;23.00;61.10;;;;;;6215139;23;20000;-74
2023/09/28 00:37:53;;;;;;;15.73;6.40;;;23.00;61.30;;;;;;6215123;23;20044;-74
2023/09/28 00:40:31;;;;;;;17.30;6.65;;;22.90;61.30;;;;;;6214956;23;20312;-74
2023/09/28 00:42:57;;;;;;;11.68;6.47;;;22.90;61.50;;;;;;6215464;23;20054;-74
2023/09/28 00:45:25;;;;;;;17.48;6.53;;;22.80;61.80;;;;;;6215421;23;20001;-74
2023/09/28 00:47:54;;;;;;;12.98;6.63;;;22.90;61.90;;;;;;6215647;23;19997;-72
2023/09/28 00:50:21;;;;;;;16.92;7.30;;;22.90;62.00;;;;;;6215573;23;20004;-74
2023/09/28 00:52:52;;;;;;;11.73;6.38;;;22.80;62.10;;;;;;6215586;23;20001;-75
2023/09/28 00:55:20;;;;;;;11.65;6.38;;;22.70;62.10;;;;;;6215661;23;20329;-75
2023/09/28 00:57:47;;;;;;;16.75;7.05;;;22.70;62.20;;;;;;6215219;23;20037;-75
2023/09/28 01:00:27;;;;;;;14.30;7.20;;;22.60;62.40;;;;;;6215087;23;20001;-75
2023/09/28 01:02:57;;;;;;;13.43;6.90;;;22.60;62.50;;;;;;6215466;23;20008;-75
2023/09/28 01:05:25;;;;;;;15.88;6.85;;;22.60;62.00;;;;;;6214825;23;20005;-75
2023/09/28 01:07:52;;;;;;;14.25;6.90;;;22.60;62.30;;;;;;6188171;23;20055;-74
2023/09/28 01:10:23;;;;;;;17.60;7.07;;;22.70;62.30;;;;;;6215193;23;20035;-74
2023/09/28 01:12:49;;;;;;;13.57;7.05;;;22.70;62.20;;;;;;6215544;23;20005;-75
2023/09/28 01:15:16;;;;;;;12.60;7.20;;;22.60;62.50;;;;;;6215165;23;20087;-73
2023/09/28 01:17:43;;;;;;;11.55;6.30;;;22.60;62.70;;;;;;6215171;23;20012;-74
2023/09/28 01:20:17;;;;;;;15.35;7.07;;;22.50;63.00;;;;;;6214926;23;19997;-74
2023/09/28 01:22:43;;;;;;;;;;;22.50;62.60;;;;;;6215275;23;20015;-74
2023/09/28 01:25:09;;;;;;;16.23;7.07;;;22.50;62.60;;;;;;6215232;23;19978;-74
2023/09/28 01:27:35;;;;;;;14.48;6.78;;;22.50;62.70;;;;;;6214910;23;19997;-74
2023/09/28 01:30:03;;;;;;;10.68;6.40;;;22.50;62.70;;;;;;6214735;23;20028;-75
2023/09/28 01:32:29;;;;;;;10.43;6.40;;;22.40;62.90;;;;;;6215015;23;20063;-74
2023/09/28 01:34:54;;;;;;;13.90;6.63;;;22.40;62.70;;;;;;6214914;23;20012;-74
2023/09/28 01:37:29;;;;;;;13.80;6.90;;;22.40;62.70;;;;;;6214795;23;20047;-74
2023/09/28 01:39:55;;;;;;;14.50;6.40;;;22.40;62.70;;;;;;6214756;23;20522;-74
2023/09/28 01:42:21;;;;;;;13.10;6.60;;;22.40;62.50;;;;;;6214883;23;20108;-74
2023/09/28 01:44:47;;;;;;;10.32;5.88;;;22.30;62.60;;;;;;6215057;23;20078;-74
2023/09/28 01:47:13;;;;;;;10.90;6.55;;;22.30;62.50;;;;;;6214898;23;20004;-74
2023/09/28 01:49:38;;;;;;;13.93;6.50;;;22.20;62.50;;;;;;6214394;23;20055;-74
2023/09/28 01:52:04;;;;;;;12.23;6.47;;;22.20;62.60;;;;;;6214352;23;20008;-73
2023/09/28 01:54:30;;;;;;;12.82;6.20;;;22.20;62.70;;;;;;6214833;23;20005;-75
2023/09/28 01:56:55;;;;;;;12.88;6.53;;;22.20;62.60;;;;;;6187849;23;20025;-75
2023/09/28 01:59:21;;;;;;;17.70;7.13;;;22.20;62.70;;;;;;6214566;23;20300;-74
2023/09/28 02:01:46;;;;;;;13.48;6.32;;;22.10;62.90;;;;;;6214499;23;20311;-74
2023/09/28 02:04:12;;;;;;;13.45;6.43;;;22.10;62.80;;;;;;6214395;23;20358;-75
2023/09/28 02:06:38;;;;;;;14.73;6.78;;;22.10;63.00;;;;;;6187914;23;20040;-74
2023/09/28 02:09:05;;;;;;;11.25;6.57;;;22.00;63.10;;;;;;6213971;23;20091;-75
2023/09/28 02:11:31;;;;;;;12.50;6.43;;;22.00;63.00;;;;;;6214271;23;20004;-73
2023/09/28 02:13:56;;;;;;;18.92;6.18;;;21.90;63.00;;;;;;6214252;23;20008;-73
2023/09/28 02:16:22;;;;;;;11.48;6.10;;;21.90;63.00;;;;;;6214109;23;20422;-73
2023/09/28 02:18:48;;;;;;;11.57;6.75;;;21.80;63.20;;;;;;6214330;23;20449;-73
2023/09/28 02:21:14;;;;;;;14.85;5.90;;;21.80;63.40;;;;;;6214691;23;20010;-74
2023/09/28 02:23:41;;;;;;;12.90;7.00;;;21.80;63.30;;;;;;6187603;23;20183;-75
2023/09/28 02:26:07;;;;;;;12.95;6.45;;;21.80;63.20;;;;;;6214588;23;20134;-75
2023/09/28 02:28:33;;;;;;;16.25;6.80;;;21.90;63.10;;;;;;6214171;23;20035;-75
2023/09/28 02:31:07;;;;;;;14.65;6.70;;;21.90;63.10;;;;;;6187243;23;20454;-74
2023/09/28 02:33:33;;;;;;;13.50;6.45;;;21.90;63.10;;;;;;6214681;23;20426;-72
2023/09/28 02:35:59;;;;;;;11.90;6.85;;;21.90;63.10;;;;;;6214186;23;20016;-74
2023/09/28 02:38:24;;;;;;;13.98;6.78;;;21.90;63.20;;;;;;6187922;23;20095;-74
2023/09/28 02:40:50;;;;;;;19.33;6.80;;;21.90;63.20;;;;;;6214145;23;20084;-74
2023/09/28 02:43:16;;;;;;;11.35;6.93;;;21.80;63.20;;;;;;6215343;23;20008;-75
2023/09/28 02:45:42;;;;;;;14.02;7.45;;;21.80;63.30;;;;;;6215013;23;20427;-74
2023/09/28 02:48:08;;;;;;;11.68;7.53;;;21.80;63.30;;;;;;6187278;23;20091;-72
2023/09/28 02:50:34;;;;;;;15.57;7.20;;;21.80;63.40;;;;;;6213983;23;20008;-74
2023/09/28 02:53:00;;;;;;;19.75;7.20;;;21.70;63.50;;;;;;6214137;23;20005;-73
2023/09/28 02:55:26;;;;;;;13.13;6.65;;;21.70;63.60;;;;;;6214097;23;20046;-74
2023/09/28 02:57:52;;;;;;;11.32;6.55;;;21.70;63.60;;;;;;6214061;23;20028;-74
2023/09/28 03:02:46;;;;;;;14.18;7.05;;;21.60;63.20;;;;;;6214762;23;20389;-73
2023/09/28 03:05:12;;;;;;;14.07;6.93;;;21.60;63.60;;;;;;6214097;23;20076;-74
2023/09/28 03:07:39;;;;;;;13.75;6.65;;;21.70;63.80;;;;;;6214056;23;20032;-74
2023/09/28 03:10:06;;;;;;;15.10;6.88;;;21.70;63.80;;;;;;6214041;23;20000;-74
2023/09/28 03:12:32;;;;;;;12.25;6.57;;;21.70;63.40;;;;;;6214845;23;20009;-75
2023/09/28 03:14:57;;;;;;;11.88;6.90;;;21.70;63.70;;;;;;6216200;23;20088;-75
2023/09/28 03:17:23;;;;;;;9.55;6.40;;;21.60;63.90;;;;;;6214599;23;20020;-75
2023/09/28 03:19:49;;;;;;;13.18;6.53;;;21.60;64.00;;;;;;6214352;23;20170;-74
2023/09/28 03:22:15;;;;;;;16.42;6.70;;;21.60;63.60;;;;;;6187266;23;20020;-75
2023/09/28 03:24:41;;;;;;;12.60;7.00;;;21.60;63.50;;;;;;6213953;23;20001;-74
2023/09/28 03:27:08;;;;;;;14.95;7.13;;;21.50;63.70;;;;;;6214207;23;20001;-75
2023/09/28 03:29:34;;;;;;;11.55;6.60;;;21.60;63.60;;;;;;6214071;23;19996;-76
2023/09/28 03:32:00;;;;;;;12.43;7.05;;;21.50;63.70;;;;;;6214878;23;20199;-77
2023/09/28 03:34:25;;;;;;;15.50;6.97;;;21.50;64.00;;;;;;6214286;23;20077;-74
2023/09/28 03:36:51;;;;;;;13.55;6.90;;;21.50;63.80;;;;;;6213956;23;20084;-74
2023/09/28 03:39:18;;;;;;;12.95;6.25;;;21.60;63.70;;;;;;6214135;23;20112;-74
2023/09/28 03:41:44;;;;;;;11.05;6.50;;;21.50;63.90;;;;;;6187950;23;20013;-75
2023/09/28 03:44:10;;;;;;;12.63;6.68;;;21.50;64.00;;;;;;6214034;23;20009;-74
2023/09/28 03:46:36;;;;;;;13.05;6.88;;;21.50;63.70;;;;;;6213667;23;20073;-73
2023/09/28 03:49:02;;;;;;;13.55;7.03;;;21.50;63.50;;;;;;6214102;23;20005;-74
2023/09/28 03:51:27;;;;;;;13.30;6.68;;;21.50;63.80;;;;;;6214057;23;20380;-72
2023/09/28 03:53:53;;;;;;;12.15;6.60;;;21.50;63.70;;;;;;6214255;23;20043;-74
2023/09/28 03:56:19;;;;;;;13.88;7.20;;;21.40;63.80;;;;;;6213779;23;20004;-74
2023/09/28 03:58:45;;;;;;;11.38;6.50;;;21.40;63.50;;;;;;6213807;23;20110;-74
2023/09/28 04:01:11;;;;;;;16.40;7.32;;;21.50;63.60;;;;;;6214415;23;20068;-75
2023/09/28 04:03:36;;;;;;;14.35;6.68;;;21.50;64.00;;;;;;6216120;23;20004;-74
2023/09/28 04:06:02;;;;;;;11.35;6.65;;;21.50;63.20;;;;;;6216264;23;20403;-75
2023/09/28 04:08:28;;;;;;;15.50;6.93;;;21.50;63.10;;;;;;6215720;23;20020;-74
2023/09/28 04:10:55;;;;;;;12.57;6.47;;;21.50;63.10;;;;;;6216126;23;20087;-75
2023/09/28 04:13:21;;;;;;;12.07;7.32;;;21.50;63.20;;;;;;6215892;23;20008;-73
2023/09/28 04:15:48;;;;;;;12.00;6.28;;;21.50;63.30;;;;;;6188698;23;20439;-74
2023/09/28 04:18:14;;;;;;;14.15;6.55;;;21.50;63.10;;;;;;6215994;23;20071;-74
2023/09/28 04:20:41;;;;;;;10.57;6.18;;;21.50;62.90;;;;;;6215498;23;20363;-75
2023/09/28 04:23:08;;;;;;;10.88;6.45;;;21.50;63.10;;;;;;6188679;23;20419;-74
2023/09/28 04:25:35;;;;;;;11.75;6.90;;;21.40;62.80;;;;;;6215442;23;20430;-74
2023/09/28 04:28:01;;;;;;;13.63;7.07;;;21.30;63.00;;;;;;6215486;23;20069;-75
2023/09/28 04:30:27;;;;;;;12.93;6.43;;;21.30;63.10;;;;;;6215213;23;20047;-74
2023/09/28 04:32:54;;;;;;;12.77;6.85;;;21.30;63.30;;;;;;6215761;23;20438;-73
2023/09/28 04:35:20;;;;;;;14.68;6.55;;;21.30;63.00;;;;;;6164285;23;20070;-75
2023/09/28 04:37:49;;;;;;;13.95;6.53;;;21.30;63.10;;;;;;6215725;23;20021;-75
2023/09/28 04:40:15;;;;;;;13.40;6.28;;;21.20;63.00;;;;;;6215546;23;20084;-74
2023/09/28 04:42:42;;;;;;;13.60;6.18;;;21.30;63.00;;;;;;6215901;23;20036;-74
2023/09/28 04:45:09;;;;;;;13.50;6.47;;;21.30;63.20;;;;;;6215361;23;20299;-74
2023/09/28 04:47:36;;;;;;;15.70;6.82;;;21.30;63.10;;;;;;6215046;23;20457;-75
2023/09/28 04:50:02;;;;;;;10.85;7.63;;;21.30;62.90;;;;;;6215370;23;20009;-75
2023/09/28 04:52:27;;;;;;;12.20;6.53;;;21.30;63.00;;;;;;6214855;23;20449;-74
2023/09/28 04:54:53;;;;;;;12.85;6.90;;;21.30;62.90;;;;;;6215675;23;20001;-75
2023/09/28 04:57:21;;;;;;;13.57;6.40;;;21.30;63.20;;;;;;6215349;23;20403;-74
2023/09/28 04:59:47;;;;;;;16.60;6.53;;;21.20;62.70;;;;;;6214987;23;19992;-75
2023/09/28 05:02:13;;;;;;;16.50;7.25;;;21.10;63.00;;;;;;6214928;23;20180;-75
2023/09/28 05:04:39;;;;;;;13.30;6.75;;;21.10;63.20;;;;;;6215067;23;20001;-75
2023/09/28 05:07:05;;;;;;;13.18;6.57;;;21.10;63.40;;;;;;6214994;23;20075;-76
2023/09/28 05:09:31;;;;;;;15.55;6.60;;;21.10;63.20;;;;;;6214630;23;20027;-74
2023/09/28 05:11:59;;;;;;;13.13;6.78;;;21.10;63.20;;;;;;6215554;23;20016;-74
2023/09/28 05:14:25;;;;;;;12.00;6.57;;;21.10;63.40;;;;;;6188408;23;20016;-74
2023/09/28 05:16:53;;;;;;;16.88;7.30;;;21.00;63.30;;;;;;6215832;23;20098;-73
2023/09/28 05:19:19;;;;;;;14.40;7.40;;;21.00;63.30;;;;;;6215916;23;20005;-75
2023/09/28 05:21:45;;;;;;;12.20;6.72;;;21.00;63.30;;;;;;6216583;23;20031;-75
2023/09/28 05:24:10;;;;;;;15.85;7.13;;;21.10;63.00;;;;;;6233736;23;19989;-71
2023/09/28 05:26:37;;;;;;;15.38;7.15;;;21.10;63.60;;;;;;6229247;23;20008;-77
2023/09/28 05:29:03;;;;;;;15.45;6.80;;;21.10;62.80;;;;;;6215512;23;20020;-75
2023/09/28 05:31:30;;;;;;;14.38;6.68;;;21.10;62.80;;;;;;6215089;23;20059;-74
2023/09/28 05:33:55;;;;;;;12.75;6.97;;;21.10;63.00;;;;;;6215082;23;20330;-76
2023/09/28 05:36:21;;;;;;;14.75;7.15;;;21.10;63.20;;;;;;6215353;23;20011;-75
2023/09/28 05:38:47;;;;;;;17.52;6.95;;;21.10;62.90;;;;;;6215219;23;20001;-74
2023/09/28 05:41:13;;;;;;;12.93;6.90;;;21.10;62.70;;;;;;6215020;23;20001;-75
2023/09/28 05:43:38;;;;;;;12.57;6.90;;;21.20;62.90;;;;;;6215327;23;20013;-75
2023/09/28 05:46:04;;;;;;;12.70;6.68;;;21.10;62.90;;;;;;6215256;23;20395;-77
2023/09/28 05:48:30;;;;;;;15.35;6.90;;;21.20;63.00;;;;;;6215784;23;20015;-81
2023/09/28 05:50:56;;;;;;;14.77;7.00;;;21.20;62.90;;;;;;6215913;23;20015;-80
2023/09/28 05:53:22;;;;;;;19.70;6.90;;;21.20;63.00;;;;;;6215755;23;20000;-83
2023/09/28 05:55:50;;;;;;;11.85;6.68;;;21.20;62.90;;;;;;6189828;23;20423;-77
2023/09/28 05:58:16;;;;;;;14.43;6.70;;;21.20;63.10;;;;;;6215736;23;20005;-80
2023/09/28 06:00:42;;;;;;;12.05;6.65;;;21.30;62.90;;;;;;6216989;23;20028;-79
2023/09/28 06:03:07;;;;;;;18.05;7.43;;;21.40;62.70;;;;;;6216404;23;20001;-81
2023/09/28 06:05:33;;;;;;;12.70;6.70;;;21.50;62.40;;;;;;6188997;23;20065;-77
2023/09/28 06:08:00;;;;;;;18.45;7.28;;;21.70;62.40;;;;;;6215724;23;20013;-82
2023/09/28 06:10:26;;;;;;;15.90;7.50;;;21.80;62.00;;;;;;6215632;23;20004;-79
2023/09/28 06:12:52;;;;;;;16.23;7.38;;;22.00;62.10;;;;;;6189015;23;20012;-81
2023/09/28 06:15:18;;;;;;;17.10;7.07;;;22.10;61.60;;;;;;6215371;23;20004;-81
2023/09/28 06:17:44;;;;;;;13.15;7.03;;;22.20;61.70;;;;;;6215329;23;20088;-79
2023/09/28 06:20:10;;;;;;;20.25;8.07;;;22.30;61.40;;;;;;6215562;23;20051;-80
2023/09/28 06:22:36;;;;;;;13.27;6.78;;;22.50;61.30;;;;;;6188885;23;20391;-76
2023/09/28 06:25:02;;;;;;;11.38;6.97;;;22.70;61.10;;;;;;6214530;23;19996;-81
2023/09/28 06:27:32;;;;;;;16.40;6.93;;;23.00;60.80;;;;;;6187828;23;20008;-77
2023/09/28 06:29:57;;;;;;;13.63;7.32;;;23.10;60.20;;;;;;6214281;23;20080;-79
2023/09/28 06:32:23;;;;;;;14.50;7.10;;;23.30;60.20;;;;;;6214709;23;20423;-79
2023/09/28 06:34:49;;;;;;;18.95;7.30;;;23.40;59.80;;;;;;6214467;23;19997;-75
2023/09/28 06:37:15;;;;;;;16.38;7.05;;;23.50;59.80;;;;;;6214380;23;20016;-74
2023/09/28 06:39:40;;;;;;;14.98;6.97;;;23.60;59.60;;;;;;6188359;23;20013;-76
2023/09/28 06:42:06;;;;;;;14.68;7.00;;;23.70;59.50;;;;;;6214216;23;20001;-76
2023/09/28 06:44:34;;;;;;;13.82;6.78;;;23.80;59.10;;;;;;6202504;23;20005;-77
2023/09/28 06:47:01;;;;;;;13.65;7.25;;;23.90;59.10;;;;;;6186904;23;20008;-78
2023/09/28 06:49:27;;;;;;;15.77;7.20;;;24.00;59.10;;;;;;6214489;23;20007;-76
2023/09/28 06:51:53;;;;;;;15.10;6.38;;;24.20;58.70;;;;;;6210254;23;20009;-80
2023/09/28 06:54:20;;;;;;;13.63;7.57;;;24.30;58.40;;;;;;6211065;23;20007;-78
2023/09/28 06:56:49;;;;;;;18.92;7.55;;;24.50;58.40;;;;;;6214460;23;20083;-80
2023/09/28 06:59:15;;;;;;;15.15;6.65;;;24.70;57.90;;;;;;6214429;23;19997;-81
2023/09/28 07:01:40;;;;;;;12.40;6.80;;;24.70;57.70;;;;;;6189010;23;20043;-81
2023/09/28 07:04:06;;;;;;;13.50;7.28;;;24.80;57.60;;;;;;6212387;23;20008;-79
2023/09/28 07:06:33;;;;;;;16.55;7.13;;;24.80;57.60;;;;;;6214630;23;20011;-78
2023/09/28 07:08:59;;;;;;;15.98;7.57;;;24.70;57.50;;;;;;6213569;23;20012;-82
2023/09/28 07:11:26;;;;;;;18.35;7.22;;;24.70;57.40;;;;;;6187970;23;20001;-81
2023/09/28 07:13:52;;;;;;;19.40;7.05;;;24.80;57.10;;;;;;6211605;23;20358;-82
2023/09/28 07:16:18;;;;;;;16.45;6.88;;;24.90;57.20;;;;;;6214495;23;20004;-81
2023/09/28 07:18:43;;;;;;;15.32;7.45;;;24.90;57.00;;;;;;6215902;23;20031;-81
2023/09/28 07:21:10;;;;;;;14.18;6.85;;;24.90;56.90;;;;;;6214224;23;20001;-81
2023/09/28 07:23:37;;;;;;;14.90;6.72;;;24.90;56.80;;;;;;6212886;23;20008;-80
2023/09/28 07:26:11;;;;;;;15.20;6.70;;;24.90;56.50;;;;;;6212372;23;20016;-82
2023/09/28 07:28:37;;;;;;;14.48;6.78;;;24.80;56.70;;;;;;6215082;23;20000;-81
2023/09/28 07:31:03;;;;;;;15.57;6.65;;;24.90;56.70;;;;;;6214326;23;20410;-78
2023/09/28 07:33:28;;;;;;;16.25;6.82;;;24.90;56.70;;;;;;6212455;23;20326;-77
2023/09/28 07:35:54;;;;;;;14.90;6.85;;;24.90;56.60;;;;;;6212814;23;20004;-77
2023/09/28 07:38:20;;;;;;;18.60;6.88;;;24.90;57.30;;;;;;6216662;23;20067;-78
2023/09/28 07:40:45;;;;;;;13.98;6.88;;;24.90;56.60;;;;;;6216021;23;19997;-79
2023/09/28 07:43:11;;;;;;;16.65;7.00;;;24.90;56.70;;;;;;6215525;23;20066;-79
2023/09/28 07:45:37;;;;;;;16.27;6.93;;;25.00;56.80;;;;;;6213853;23;20322;-79
2023/09/28 07:48:05;;;;;;;14.18;7.25;;;24.90;56.80;;;;;;6216236;23;20096;-79
2023/09/28 07:50:30;;;;;;;14.77;7.15;;;24.90;56.90;;;;;;6216174;23;20135;-79
2023/09/28 07:52:56;;;;;;;16.27;7.10;;;24.80;56.80;;;;;;6215718;23;20001;-79
2023/09/28 07:55:22;;;;;;;17.05;7.00;;;24.80;57.10;;;;;;6212516;23;20395;-79
2023/09/28 07:57:48;;;;;;;12.98;6.97;;;24.70;57.00;;;;;;6215276;23;20012;-79
2023/09/28 08:00:14;;;;;;;9.45;6.40;;;24.60;57.20;;;;;;6215821;23;20039;-80
2023/09/28 08:02:42;;;;;;;13.43;7.85;;;24.50;57.30;;;;;;6216188;23;20047;-83
2023/09/28 08:05:08;;;;;;;67.53;12.95;;;24.50;57.50;;;;;;6213041;23;20366;-75
2023/09/28 08:07:34;;;;;;;19.50;6.55;;;24.40;57.70;;;;;;6189261;23;20015;-80
2023/09/28 08:10:00;;;;;;;22.52;7.45;;;24.40;57.80;;;;;;6216638;23;20056;-81
2023/09/28 08:12:27;;;;;;;42.53;10.65;;;24.40;58.00;;;;;;6217634;23;20000;-83
2023/09/28 08:14:53;;;;;;;27.15;7.93;;;24.40;58.10;;;;;;6213754;23;20001;-82
2023/09/28 08:17:20;;;;;;;13.57;6.70;;;24.40;58.10;;;;;;6216438;23;20469;-83
2023/09/28 08:19:45;;;;;;;12.02;7.10;;;24.30;58.20;;;;;;6216578;23;20017;-82
2023/09/28 08:22:11;;;;;;;17.30;7.38;;;24.30;58.30;;;;;;6216371;23;20008;-83
2023/09/28 08:24:37;;;;;;;16.92;6.75;;;24.40;58.40;;;;;;6185605;23;20338;-83
2023/09/28 08:27:04;;;;;;;15.07;6.85;;;24.40;58.50;;;;;;6216529;23;20040;-82
2023/09/28 08:29:30;;;;;;;17.67;6.28;;;24.40;58.70;;;;;;6190139;23;20005;-82
2023/09/28 08:31:57;;;;;;;15.35;7.97;;;24.40;58.70;;;;;;6216401;23;20001;-81
2023/09/28 08:34:23;;;;;;;19.70;7.28;;;24.40;58.60;;;;;;6212949;23;20427;-81
2023/09/28 08:36:50;;;;;;;14.25;6.72;;;24.40;58.70;;;;;;6219531;23;20099;-81
2023/09/28 08:39:16;;;;;;;13.43;7.60;;;24.40;58.80;;;;;;6218834;23;20427;-85
2023/09/28 08:41:44;;;;;;;15.60;7.90;;;24.40;58.80;;;;;;6218210;23;20084;-82
2023/09/28 08:44:11;;;;;;;17.25;7.57;;;24.50;58.90;;;;;;6213293;23;20462;-81
2023/09/28 08:46:40;;;;;;;19.65;7.82;;;24.40;58.90;;;;;;6217433;23;19997;-79
2023/09/28 08:49:07;;;;;;;15.75;6.88;;;24.50;58.80;;;;;;6190893;23;20095;-87
2023/09/28 08:51:36;;;;;;;32.08;8.13;;;24.50;59.00;;;;;;6217433;23;20004;-82
2023/09/28 08:54:04;;;;;;;14.45;7.55;;;24.60;59.30;;;;;;6214457;23;20004;-85
2023/09/28 08:56:34;;;;;;;16.10;7.35;;;24.60;59.30;;;;;;6217040;23;20380;-83
2023/09/28 08:59:02;;;;;;;20.15;7.65;;;24.70;59.10;;;;;;6217177;23;20031;-83
2023/09/28 09:01:30;;;;;;;17.13;7.20;;;24.70;59.00;;;;;;6216707;23;20385;-81
2023/09/28 09:03:57;;;;;;;17.25;9.05;;;24.80;59.00;;;;;;6212806;23;20390;-77
2023/09/28 09:06:24;;;;;;;17.17;8.65;;;24.80;58.90;;;;;;6214883;23;19996;-79
2023/09/28 09:08:50;;;;;;;13.93;7.05;;;24.90;58.90;;;;;;6218119;23;20035;-88
2023/09/28 09:11:16;;;;;;;14.23;7.88;;;24.90;58.70;;;;;;6216213;23;19997;-83
2023/09/28 09:13:55;;;;;;;13.80;7.30;;;25.00;58.60;;;;;;6215102;23;20000;-78
2023/09/28 09:16:26;;;;;;;16.30;8.07;;;25.00;58.70;;;;;;6214760;23;20163;-80
2023/09/28 09:18:53;;;;;;;21.52;8.63;;;25.10;58.50;;;;;;6215542;23;20000;-74
2023/09/28 09:21:20;;;;;;;18.17;7.60;;;25.20;58.70;;;;;;6215657;23;19996;-78
2023/09/28 09:24:05;;;;;;;18.70;8.32;;;25.30;59.00;;;;;;6215098;23;20008;-78
2023/09/28 09:26:39;;;;;;;15.00;7.68;;;25.40;58.20;;;;;;6215850;23;20012;-79
2023/09/28 09:29:05;;;;;;;13.77;8.02;;;25.40;58.10;;;;;;6188620;23;20368;-77
2023/09/28 09:31:33;;;;;;;15.82;7.75;;;25.50;58.00;;;;;;6219136;23;20001;-80
2023/09/28 09:34:02;;;;;;;16.08;8.27;;;25.50;57.80;;;;;;6213203;23;20366;-75
2023/09/28 09:36:28;;;;;;;20.02;7.70;;;25.60;57.80;;;;;;6227201;23;20032;-80
2023/09/28 09:38:53;;;;;;;15.27;7.50;;;25.60;57.50;;;;;;6219959;23;20001;-80
2023/09/28 09:41:19;;;;;;;17.90;7.57;;;25.70;57.50;;;;;;6219143;23;20075;-78
2023/09/28 09:43:45;;;;;;;14.02;8.68;;;25.70;57.30;;;;;;6217511;23;20004;-80
2023/09/28 09:46:11;;;;;;;13.48;7.82;;;25.80;57.20;;;;;;6234816;23;19997;-80
2023/09/28 09:48:38;;;;;;;17.98;8.10;;;25.80;57.10;;;;;;6219934;23;20083;-77
2023/09/28 09:51:07;;;;;;;15.00;8.13;;;25.90;57.50;;;;;;6216634;23;20003;-80
2023/09/28 09:53:34;;;;;;;13.80;7.13;;;25.90;57.10;;;;;;6214488;23;20155;-79
2023/09/28 09:56:04;;;;;;;14.90;7.18;;;26.00;56.80;;;;;;6213441;23;20431;-81
2023/09/28 09:58:37;;;;;;;17.48;7.28;;;26.10;56.70;;;;;;6215622;23;20005;-80
2023/09/28 10:01:12;;;;;;;21.95;8.20;;;26.20;56.70;;;;;;6215729;23;20008;-78
2023/09/28 10:03:50;;;;;;;18.23;8.43;;;26.30;56.30;;;;;;6214078;23;20045;-82
2023/09/28 10:06:17;;;;;;;19.25;7.75;;;26.30;56.70;;;;;;6214003;23;20024;-80
2023/09/28 10:08:45;;;;;;;17.95;7.55;;;26.30;56.20;;;;;;6215725;23;20021;-86
2023/09/28 10:11:12;;;;;;;17.10;8.25;;;26.40;56.10;;;;;;6216119;23;20000;-85
2023/09/28 10:13:38;;;;;;;15.48;7.88;;;26.40;55.90;;;;;;6214524;23;20027;-85
2023/09/28 10:16:05;;;;;;;15.65;7.32;;;26.50;55.70;;;;;;6187520;23;20457;-86
2023/09/28 10:18:33;;;;;;;13.15;7.90;;;26.50;55.70;;;;;;6216681;23;20086;-85
2023/09/28 10:21:00;;;;;;;16.88;8.30;;;26.60;55.50;;;;;;6216197;23;20032;-85
2023/09/28 10:23:27;;;;;;;14.05;8.10;;;26.60;55.40;;;;;;6217452;23;20009;-86
2023/09/28 10:26:06;;;;;;;20.80;7.90;;;26.70;55.10;;;;;;6215189;23;19997;-87
2023/09/28 10:28:33;;;;;;;14.90;7.75;;;26.80;55.00;;;;;;6217807;23;20430;-85
2023/09/28 10:31:04;;;;;;;12.57;7.80;;;26.80;54.60;;;;;;6221714;23;20457;-87
2023/09/28 10:33:35;;;;;;;12.50;7.97;;;26.90;54.50;;;;;;6214932;23;20318;-87
2023/09/28 10:36:14;;;;;;;15.18;7.47;;;26.90;54.00;;;;;;6215096;23;20084;-86
2023/09/28 10:38:41;;;;;;;15.00;7.57;;;27.00;54.00;;;;;;6217011;23;20001;-87
2023/09/28 10:41:07;;;;;;;18.42;7.15;;;27.00;54.00;;;;;;6189470;23;20055;-86
2023/09/28 10:43:43;;;;;;;18.83;8.23;;;27.10;53.90;;;;;;6187733;23;20032;-87
2023/09/28 10:46:09;;;;;;;20.08;8.15;;;27.10;53.80;;;;;;6202519;23;20312;-86
2023/09/28 10:48:44;;;;;;;14.68;6.78;;;27.20;54.00;;;;;;6217184;23;20442;-86
2023/09/28 10:51:18;;;;;;;14.82;8.20;;;27.30;53.90;;;;;;6190877;23;20036;-83
2023/09/28 10:53:45;;;;;;;16.73;7.60;;;27.40;53.60;;;;;;6213812;23;20133;-77
2023/09/28 10:56:12;;;;;;;16.67;7.63;;;27.50;53.70;;;;;;6213937;23;20011;-85
2023/09/28 10:58:39;;;;;;;18.15;7.93;;;27.60;53.20;;;;;;6215316;23;20063;-86
2023/09/28 11:01:06;;;;;;;14.98;7.75;;;27.60;53.00;;;;;;6216841;23;20016;-86
2023/09/28 11:03:34;;;;;;;23.65;10.90;;;27.70;52.60;;;;;;6215407;23;20068;-83
2023/09/28 11:06:04;;;;;;;26.88;18.48;;;27.80;52.50;;;;;;6219230;23;20448;-82
2023/09/28 11:08:33;;;;;;;17.73;10.15;;;27.80;52.00;;;;;;6220489;23;20016;-85
2023/09/28 11:11:01;;;;;;;17.42;9.05;;;27.90;52.00;;;;;;6188497;23;20004;-83
2023/09/28 11:13:30;;;;;;;16.70;8.43;;;28.00;52.20;;;;;;6188922;23;20028;-75
2023/09/28 11:15:57;;;;;;;16.50;8.25;;;28.00;52.00;;;;;;6187745;23;20019;-82
2023/09/28 11:18:27;;;;;;;14.52;7.25;;;28.10;52.20;;;;;;6214560;23;20028;-79
2023/09/28 11:20:58;;;;;;;14.30;7.68;;;28.10;51.80;;;;;;6162768;23;20156;-75
2023/09/28 11:23:24;;;;;;;14.73;7.72;;;28.20;51.00;;;;;;6212770;23;20001;-73
2023/09/28 11:25:51;;;;;;;13.80;8.38;;;28.30;51.40;;;;;;6186014;23;20012;-80
2023/09/28 11:28:18;;;;;;;15.70;7.90;;;28.30;51.30;;;;;;6215157;23;20399;-83
2023/09/28 11:30:44;;;;;;;12.82;6.95;;;28.30;51.40;;;;;;6184099;23;20013;-83
2023/09/28 11:33:11;;;;;;;21.13;7.88;;;28.30;51.00;;;;;;6213708;23;20004;-85
2023/09/28 11:35:38;;;;;;;20.48;7.00;;;28.40;50.80;;;;;;6213076;23;20013;-83
2023/09/28 11:38:10;;;;;;;14.27;7.80;;;28.50;50.90;;;;;;6215232;23;20449;-88
2023/09/28 11:40:37;;;;;;;16.10;7.38;;;28.50;50.00;;;;;;6215567;23;20004;-87
2023/09/28 11:43:04;;;;;;;16.70;7.80;;;28.60;50.10;;;;;;6219758;23;20000;-87
2023/09/28 11:45:36;;;;;;;16.58;7.35;;;28.70;50.00;;;;;;6225729;23;20005;-84
2023/09/28 11:48:12;;;;;;;15.05;7.10;;;28.70;50.00;;;;;;6237312;23;20031;-77
2023/09/28 11:50:38;;;;;;;14.35;6.88;;;28.80;49.70;;;;;;6177707;23;20024;-78
2023/09/28 11:53:10;;;;;;;11.88;6.75;;;28.80;49.30;;;;;;6219157;23;20005;-77
2023/09/28 11:55:38;;;;;;;13.90;7.40;;;28.90;49.10;;;;;;6213864;23;20005;-80
2023/09/28 11:58:08;;;;;;;15.48;7.05;;;28.90;49.60;;;;;;6188097;23;20013;-79
2023/09/28 12:00:35;;;;;;;14.90;7.00;;;28.90;49.30;;;;;;6214505;23;20063;-80
2023/09/28 12:03:02;;;;;;;17.02;8.02;;;29.00;49.30;;;;;;6213766;23;19997;-78
2023/09/28 12:05:29;;;;;;;14.13;7.15;;;29.00;49.40;;;;;;6184702;23;20437;-79
2023/09/28 12:07:56;;;;;;;17.92;8.75;;;29.00;48.90;;;;;;6214695;23;20001;-82
2023/09/28 12:10:22;;;;;;;14.75;7.93;;;29.00;48.90;;;;;;6215285;23;20004;-87
2023/09/28 12:12:48;;;;;;;17.17;7.80;;;29.10;48.60;;;;;;6187711;23;20004;-82
2023/09/28 12:15:14;;;;;;;14.30;8.10;;;29.10;48.70;;;;;;6210465;23;20048;-80
2023/09/28 12:17:41;;;;;;;14.38;7.28;;;29.10;48.30;;;;;;6213802;23;20402;-81
2023/09/28 12:20:09;;;;;;;15.25;8.70;;;29.10;48.50;;;;;;6187001;23;20005;-80
2023/09/28 12:22:36;;;;;;;19.73;7.90;;;29.10;48.20;;;;;;6214502;23;20009;-81
2023/09/28 12:25:04;;;;;;;15.55;7.30;;;29.20;48.60;;;;;;6211421;23;20494;-82
2023/09/28 12:27:34;;;;;;;16.58;8.40;;;29.20;48.60;;;;;;6215786;23;20007;-81
2023/09/28 12:30:00;;;;;;;20.33;14.10;;;29.10;48.60;;;;;;6188808;23;20088;-81
2023/09/28 12:32:28;;;;;;;16.92;8.10;;;29.10;48.20;;;;;;6218368;23;20000;-83
2023/09/28 12:34:55;;;;;;;14.02;7.90;;;29.00;48.40;;;;;;6211844;23;20028;-82
2023/09/28 12:37:21;;;;;;;14.07;8.18;;;29.00;48.70;;;;;;6215164;23;20016;-81
2023/09/28 12:39:48;;;;;;;17.88;8.25;;;29.00;48.10;;;;;;6188604;23;20031;-81